Time;durP1;ratioP1;P1;durP2;ratioP2;P2;SDS_P1;SDS_P2;PMS_P1;PMS_P2;Temp;Humidity;BMP_temperature;BMP_pressure;BME280_temperature;BME280_humidity;BME280_pressure;Samples;Min_cycle;Max_cycle;Signal;HPM_P1;HPM_P2
2023/01/05 00:01:53;;;;;;;35.78;6.93;;;11.30;99.90;;;;;;5014848;28;20475;-81
2023/01/05 00:04:25;;;;;;;29.93;6.10;;;11.40;99.90;;;;;;5016122;28;20285;-85
2023/01/05 00:06:54;;;;;;;28.93;6.47;;;11.40;99.90;;;;;;5015842;28;20664;-86
2023/01/05 00:09:22;;;;;;;18.43;4.83;;;11.50;99.90;;;;;;5016299;28;20252;-85
2023/01/05 00:23:02;;;;;;;29.97;5.73;;;11.40;99.90;;;;;;5015832;28;20193;-86
2023/01/05 00:25:38;;;;;;;26.97;4.80;;;11.40;99.90;;;;;;5015863;28;20252;-82
2023/01/05 00:28:08;;;;;;;27.97;5.60;;;11.50;99.90;;;;;;5016244;28;20297;-80
2023/01/05 00:30:40;;;;;;;30.40;6.30;;;11.60;99.90;;;;;;5015432;28;20229;-82
2023/01/05 00:33:11;;;;;;;34.60;7.20;;;11.40;99.90;;;;;;5013869;28;20523;-83
2023/01/05 00:35:42;;;;;;;32.53;6.20;;;11.50;99.90;;;;;;5015188;28;20200;-84
2023/01/05 00:38:12;;;;;;;31.70;6.10;;;11.50;99.90;;;;;;5014991;28;20251;-89
2023/01/05 00:40:40;;;;;;;23.10;4.73;;;11.50;99.90;;;;;;5015839;28;20227;-81
2023/01/05 00:43:13;;;;;;;30.27;4.57;;;11.50;99.90;;;;;;5014871;28;20196;-85
2023/01/05 00:45:41;;;;;;;28.80;5.73;;;11.40;99.90;;;;;;5014696;28;20252;-85
2023/01/05 00:48:15;;;;;;;25.93;5.30;;;11.40;99.90;;;;;;5015133;28;20298;-86
2023/01/05 00:50:57;;;;;;;31.67;5.87;;;11.40;99.90;;;;;;5017405;28;20313;-84
2023/01/05 00:53:30;;;;;;;25.57;5.57;;;11.40;99.90;;;;;;5019491;28;20244;-87
2023/01/05 00:55:57;;;;;;;28.63;4.90;;;11.40;99.90;;;;;;5020070;28;20232;-86
2023/01/05 00:58:26;;;;;;;32.37;6.57;;;11.50;99.90;;;;;;5020490;28;20294;-86
2023/01/05 01:00:57;;;;;;;30.97;5.20;;;11.50;99.90;;;;;;5019053;28;20691;-85
2023/01/05 01:03:26;;;;;;;26.83;5.37;;;11.50;99.90;;;;;;5021581;28;20206;-86
2023/01/05 01:05:59;;;;;;;32.27;5.83;;;11.50;99.90;;;;;;5021196;28;20197;-85
2023/01/05 01:08:26;;;;;;;32.83;5.13;;;11.40;99.90;;;;;;5018899;28;20214;-85
2023/01/05 01:10:55;;;;;;;25.97;5.77;;;11.40;99.90;;;;;;5017196;28;20286;-87
2023/01/05 01:13:27;;;;;;;24.77;5.57;;;11.30;99.90;;;;;;5016698;28;20316;-85
2023/01/05 01:15:55;;;;;;;25.20;5.50;;;11.20;99.90;;;;;;5015854;28;20204;-84
2023/01/05 01:18:23;;;;;;;32.65;6.95;;;11.30;99.90;;;;;;5014612;28;20837;-87
2023/01/05 01:20:51;;;;;;;25.30;5.93;;;11.30;99.90;;;;;;5015649;28;20693;-86
2023/01/05 01:23:21;;;;;;;29.13;5.93;;;11.30;99.90;;;;;;5018470;28;20212;-86
2023/01/05 01:25:49;;;;;;;25.57;4.97;;;11.30;99.90;;;;;;5018590;28;20197;-87
2023/01/05 01:28:17;;;;;;;32.47;6.67;;;11.30;99.90;;;;;;5018707;28;20297;-86
2023/01/05 01:30:46;;;;;;;25.23;5.20;;;11.30;99.90;;;;;;5018251;28;20225;-81
2023/01/05 01:33:14;;;;;;;29.20;5.83;;;11.30;99.90;;;;;;5018061;28;20238;-81
2023/01/05 01:35:41;;;;;;;24.77;4.80;;;11.30;99.90;;;;;;5018452;28;20228;-85
2023/01/05 01:38:09;;;;;;;26.73;5.30;;;11.40;99.90;;;;;;5018043;28;20215;-84
2023/01/05 01:40:43;;;;;;;27.40;5.97;;;11.40;99.90;;;;;;5018155;28;20303;-82
2023/01/05 01:43:14;;;;;;;30.13;4.63;;;11.30;99.90;;;;;;5017981;28;20197;-84
2023/01/05 01:45:44;;;;;;;28.43;5.77;;;11.40;99.90;;;;;;5018183;28;20645;-84
2023/01/05 01:48:16;;;;;;;30.93;5.77;;;11.20;99.90;;;;;;5017788;28;20205;-89
2023/01/05 01:50:50;;;;;;;33.80;7.38;;;11.30;99.90;;;;;;5017198;28;20460;-82
2023/01/05 01:53:30;;;;;;;28.13;6.23;;;11.40;99.90;;;;;;5017423;28;20246;-81
2023/01/05 01:56:02;;;;;;;32.10;6.27;;;11.40;99.90;;;;;;5017646;28;20209;-84
2023/01/05 01:58:32;;;;;;;32.57;5.50;;;11.40;99.90;;;;;;5017750;28;20210;-82
2023/01/05 02:01:01;;;;;;;31.07;6.00;;;11.50;99.90;;;;;;5017684;28;20252;-87
2023/01/05 02:03:33;;;;;;;29.63;5.07;;;11.50;99.90;;;;;;5017846;28;20218;-82
2023/01/05 02:06:01;;;;;;;34.80;6.37;;;11.50;99.90;;;;;;5017925;28;20228;-83
2023/01/05 02:08:35;;;;;;;31.30;5.80;;;11.50;99.90;;;;;;5017590;28;20611;-84
2023/01/05 02:11:34;;;;;;;24.63;5.23;;;11.40;99.90;;;;;;5018102;28;20239;-84
2023/01/05 02:14:24;;;;;;;28.23;6.20;;;11.40;99.90;;;;;;5017356;28;20325;-86
2023/01/05 02:17:10;;;;;;;26.73;5.00;;;11.40;99.90;;;;;;5017689;28;20220;-81
2023/01/05 02:23:17;;;;;;;28.77;6.00;;;11.40;99.90;;;;;;5037578;28;20239;-81
2023/01/05 02:26:27;;;;;;;28.03;6.07;;;11.30;99.90;;;;;;5021899;28;20235;-81
2023/01/05 02:29:17;;;;;;;28.20;5.47;;;11.40;99.90;;;;;;5021919;28;20232;-81
2023/01/05 02:31:55;;;;;;;35.30;5.73;;;11.30;99.90;;;;;;5022797;28;20237;-81
2023/01/05 02:34:36;;;;;;;30.83;6.23;;;11.30;99.90;;;;;;5040620;28;20280;-81
2023/01/05 02:37:39;;;;;;;25.47;5.07;;;11.30;99.90;;;;;;5039689;28;20221;-82
2023/01/05 02:40:19;;;;;;;27.10;4.90;;;11.20;99.90;;;;;;5038894;28;20223;-82
2023/01/05 02:43:03;;;;;;;28.53;5.50;;;11.30;99.90;;;;;;5032959;28;20201;-81
2023/01/05 02:45:30;;;;;;;27.97;5.53;;;11.30;99.90;;;;;;5035670;28;20229;-82
2023/01/05 02:48:04;;;;;;;28.77;5.90;;;11.30;99.90;;;;;;5033664;28;20233;-82
2023/01/05 02:50:44;;;;;;;37.30;6.60;;;11.40;99.90;;;;;;5032387;28;20209;-81
2023/01/05 02:53:25;;;;;;;35.30;7.88;;;11.50;99.90;;;;;;5027217;28;20448;-81
2023/01/05 02:56:00;;;;;;;33.00;6.37;;;11.50;99.90;;;;;;5012237;28;20210;-83
2023/01/05 02:58:39;;;;;;;27.20;6.00;;;11.50;99.90;;;;;;5015865;28;20206;-82
2023/01/05 03:01:10;;;;;;;29.67;5.60;;;11.50;99.90;;;;;;5021945;28;20688;-84
2023/01/05 03:04:00;;;;;;;31.70;6.50;;;11.50;99.90;;;;;;5021564;28;20206;-82
2023/01/05 03:06:32;;;;;;;29.73;5.60;;;11.60;99.90;;;;;;5016491;28;20210;-81
2023/01/05 03:15:19;;;;;;;31.73;5.90;;;11.40;99.90;;;;;;5038899;28;20209;-81
2023/01/05 03:17:54;;;;;;;24.63;5.57;;;11.40;99.90;;;;;;5034060;28;20205;-82
2023/01/05 03:20:26;;;;;;;29.37;5.90;;;11.40;99.90;;;;;;5031411;28;20210;-81
2023/01/05 03:37:18;;;;;;;34.17;5.80;;;11.50;99.90;;;;;;5031741;28;20279;-81
2023/01/05 03:39:56;;;;;;;20.73;5.20;;;11.50;99.90;;;;;;5038255;28;20237;-82
2023/01/05 03:42:31;;;;;;;29.33;5.87;;;11.50;99.90;;;;;;5036346;28;20214;-82
2023/01/05 03:45:38;;;;;;;28.03;5.00;;;11.50;99.90;;;;;;5034951;28;20193;-81
2023/01/05 03:48:47;;;;;;;27.00;5.67;;;11.50;99.90;;;;;;5019914;28;20204;-82
2023/01/05 03:51:27;;;;;;;24.73;5.40;;;11.50;99.90;;;;;;5014505;28;20208;-81
2023/01/05 03:54:05;;;;;;;28.73;5.73;;;11.50;99.90;;;;;;5026746;28;20217;-81
2023/01/05 03:56:38;;;;;;;34.57;6.50;;;11.60;99.90;;;;;;5031145;28;20209;-81
2023/01/05 04:02:29;;;;;;;25.20;5.40;;;11.40;99.90;;;;;;5035194;28;20194;-82
2023/01/05 04:05:07;;;;;;;25.63;5.07;;;11.40;99.90;;;;;;5032147;28;20215;-82
2023/01/05 04:08:05;;;;;;;31.30;6.23;;;11.50;99.90;;;;;;5016071;28;20207;-84
2023/01/05 04:10:33;;;;;;;32.80;5.93;;;11.50;99.90;;;;;;5029695;28;20567;-86
2023/01/05 04:13:34;;;;;;;30.70;6.80;;;11.60;99.90;;;;;;5015026;28;20508;-85
2023/01/05 04:16:38;;;;;;;29.83;6.40;;;11.50;99.90;;;;;;5038440;28;20194;-82
2023/01/05 04:19:08;;;;;;;25.90;5.10;;;11.50;99.90;;;;;;5037204;28;20221;-82
2023/01/05 04:21:47;;;;;;;33.20;5.93;;;11.50;99.90;;;;;;5037458;28;20221;-81
2023/01/05 04:24:14;;;;;;;30.33;5.63;;;11.40;99.90;;;;;;5026254;28;20209;-83
2023/01/05 04:26:52;;;;;;;29.47;6.03;;;11.50;99.90;;;;;;5031637;28;20201;-82
2023/01/05 04:29:28;;;;;;;33.53;6.27;;;11.50;99.90;;;;;;5035742;28;20276;-82
2023/01/05 04:32:22;;;;;;;33.23;5.70;;;11.50;99.90;;;;;;5031203;28;20233;-82
2023/01/05 04:34:55;;;;;;;25.50;4.93;;;11.40;99.90;;;;;;5035830;28;20221;-82
2023/01/05 04:37:35;;;;;;;32.17;5.53;;;11.40;99.90;;;;;;5036801;28;20233;-81
2023/01/05 04:40:11;;;;;;;25.43;5.73;;;11.30;99.90;;;;;;5037093;28;20236;-82
2023/01/05 04:42:40;;;;;;;32.27;5.73;;;11.40;99.90;;;;;;5016270;28;20199;-81
2023/01/05 04:45:23;;;;;;;33.63;5.77;;;11.40;99.90;;;;;;5019509;28;20200;-81
2023/01/05 04:47:59;;;;;;;29.43;6.63;;;11.40;99.90;;;;;;5021376;28;20196;-83
2023/01/05 04:50:51;;;;;;;25.60;5.73;;;11.40;99.90;;;;;;5011845;28;20684;-84
2023/01/05 04:54:01;;;;;;;27.47;5.67;;;11.40;99.90;;;;;;5017826;28;20324;-81
2023/01/05 04:56:47;;;;;;;32.87;5.83;;;11.40;99.90;;;;;;5013558;28;20262;-82
2023/01/05 04:59:21;;;;;;;26.70;5.93;;;11.30;99.90;;;;;;5014901;28;20198;-82
2023/01/05 05:02:13;;;;;;;27.73;5.67;;;11.20;99.90;;;;;;5014927;28;20210;-81
2023/01/05 05:04:40;;;;;;;34.03;6.27;;;11.30;99.90;;;;;;5010522;28;20218;-81
2023/01/05 05:07:07;;;;;;;28.90;6.20;;;11.20;99.90;;;;;;5012800;28;20226;-82
2023/01/05 05:09:55;;;;;;;28.77;5.67;;;11.20;99.90;;;;;;5016783;28;20196;-82
2023/01/05 05:12:23;;;;;;;32.03;6.20;;;11.20;99.90;;;;;;5012968;28;20255;-82
2023/01/05 05:14:55;;;;;;;35.83;6.13;;;11.20;99.90;;;;;;5017207;28;20247;-82
2023/01/05 05:17:25;;;;;;;30.70;6.63;;;11.30;99.90;;;;;;5033016;28;20205;-82
2023/01/05 05:20:23;;;;;;;26.80;6.20;;;11.20;99.90;;;;;;5037842;28;20189;-83
2023/01/05 05:23:12;;;;;;;33.23;5.57;;;11.30;99.90;;;;;;5019022;28;20208;-82
2023/01/05 05:25:50;;;;;;;36.87;6.83;;;11.20;99.90;;;;;;5032341;28;20205;-81
2023/01/05 05:28:21;;;;;;;27.57;5.33;;;11.20;99.90;;;;;;5014844;28;20231;-81
2023/01/05 05:30:51;;;;;;;25.23;5.73;;;11.30;99.90;;;;;;5030557;28;20219;-82
2023/01/05 05:33:44;;;;;;;37.63;6.70;;;11.30;99.90;;;;;;5027404;28;20287;-81
2023/01/05 05:36:20;;;;;;;37.03;7.68;;;11.30;99.90;;;;;;5029718;28;20516;-80
2023/01/05 05:38:58;;;;;;;33.83;5.80;;;11.30;99.90;;;;;;5031376;28;20197;-82
2023/01/05 05:41:27;;;;;;;32.03;6.77;;;11.30;99.90;;;;;;5032444;28;20239;-81
2023/01/05 05:44:01;;;;;;;27.80;6.80;;;11.30;99.90;;;;;;5065894;22;20242;-90
2023/01/05 05:46:56;;;;;;;27.07;5.93;;;11.30;99.90;;;;;;5034859;28;20205;-90
2023/01/05 05:49:28;;;;;;;26.80;6.20;;;11.30;99.90;;;;;;5035311;28;20604;-92
2023/01/05 05:51:59;;;;;;;31.40;5.97;;;11.30;99.90;;;;;;5034481;28;20224;-91
2023/01/05 05:54:40;;;;;;;32.00;6.40;;;11.20;99.90;;;;;;5035094;28;20248;-93
2023/01/05 05:57:13;;;;;;;35.40;6.60;;;11.30;99.90;;;;;;5034949;28;20294;-93
2023/01/05 05:59:43;;;;;;;32.77;6.23;;;11.30;99.90;;;;;;5034191;28;20258;-93
2023/01/05 06:02:23;;;;;;;31.40;6.17;;;11.30;99.90;;;;;;5033674;28;20204;-91
2023/01/05 06:05:01;;;;;;;32.33;6.60;;;11.20;99.90;;;;;;5033630;28;20224;-90
2023/01/05 06:07:28;;;;;;;37.37;6.10;;;11.20;99.90;;;;;;5035791;28;20209;-91
2023/01/05 06:10:08;;;;;;;40.42;8.10;;;11.20;99.90;;;;;;5037617;28;20776;-95
2023/01/05 06:12:35;;;;;;;30.50;6.37;;;11.20;99.90;;;;;;5037283;28;20561;-89
2023/01/05 06:15:16;;;;;;;27.13;6.20;;;11.30;99.90;;;;;;5019742;28;20223;-92
2023/01/05 06:17:52;;;;;;;31.93;6.47;;;11.30;99.90;;;;;;5037626;28;20215;-92
2023/01/05 06:20:38;;;;;;;29.53;5.37;;;11.20;99.90;;;;;;5037298;28;20228;-91
2023/01/05 06:23:14;;;;;;;33.53;6.83;;;11.20;99.90;;;;;;5037453;28;20277;-92
2023/01/05 06:25:47;;;;;;;31.63;6.60;;;11.20;99.90;;;;;;5037191;28;20217;-92
2023/01/05 06:28:15;;;;;;;33.87;6.10;;;11.30;99.90;;;;;;5037082;28;20299;-92
2023/01/05 06:30:50;;;;;;;28.80;6.00;;;11.20;99.90;;;;;;5037110;28;20232;-92
2023/01/05 06:33:30;;;;;;;33.03;5.87;;;11.20;99.90;;;;;;5042355;28;20226;-93
2023/01/05 06:36:03;;;;;;;25.60;6.07;;;11.30;99.90;;;;;;5037199;28;20652;-92
2023/01/05 06:38:34;;;;;;;26.47;5.73;;;11.20;99.90;;;;;;5038871;28;20228;-91
2023/01/05 06:41:02;;;;;;;30.97;6.17;;;11.20;99.90;;;;;;5036865;28;20229;-90
2023/01/05 06:43:32;;;;;;;34.78;7.05;;;11.20;99.90;;;;;;5043080;28;20450;-90
2023/01/05 06:46:02;;;;;;;28.93;6.07;;;11.30;99.90;;;;;;5047093;28;20240;-91
2023/01/05 06:48:35;;;;;;;27.90;5.90;;;11.30;99.90;;;;;;5046855;28;20208;-93
2023/01/05 06:51:02;;;;;;;27.27;6.37;;;11.20;99.90;;;;;;5043129;28;20250;-93
2023/01/05 06:53:41;;;;;;;33.20;6.33;;;11.10;99.90;;;;;;5044814;28;20224;-92
2023/01/05 06:56:11;;;;;;;33.03;5.87;;;11.10;99.90;;;;;;5044811;28;20236;-94
2023/01/05 07:01:35;;;;;;;32.40;5.53;;;11.10;99.90;;;;;;5036630;28;20726;-90
2023/01/05 07:04:09;;;;;;;34.10;6.47;;;11.00;99.90;;;;;;5037256;28;20653;-90
2023/01/05 07:07:04;;;;;;;28.00;5.67;;;10.90;99.90;;;;;;5037782;28;20330;-90
2023/01/05 07:09:38;;;;;;;27.13;5.67;;;10.90;99.90;;;;;;5037755;28;20228;-92
2023/01/05 07:12:11;;;;;;;33.20;7.60;;;10.90;99.90;;;;;;5036849;28;20200;-90
2023/01/05 07:14:42;;;;;;;29.77;6.17;;;10.90;99.90;;;;;;5036928;28;20318;-91
2023/01/05 07:17:13;;;;;;;29.73;6.17;;;10.90;99.90;;;;;;5036629;28;20201;-93
2023/01/05 07:19:47;;;;;;;29.70;4.97;;;10.80;99.90;;;;;;5035469;28;20211;-92
2023/01/05 07:22:17;;;;;;;28.80;5.83;;;10.80;99.90;;;;;;5036393;28;20211;-91
2023/01/05 07:24:55;;;;;;;30.13;5.50;;;10.70;99.90;;;;;;5036877;28;20303;-92
2023/01/05 07:27:30;;;;;;;32.00;6.40;;;10.70;99.90;;;;;;5036796;28;20652;-91
2023/01/05 07:29:57;;;;;;;31.83;5.67;;;10.70;99.90;;;;;;5036991;28;20316;-91
2023/01/05 07:32:28;;;;;;;25.60;5.97;;;10.80;99.90;;;;;;5036608;28;20247;-94
2023/01/05 07:35:06;;;;;;;34.85;7.72;;;11.00;99.90;;;;;;5035408;28;20534;-90
2023/01/05 07:37:34;;;;;;;23.60;6.07;;;10.80;99.90;;;;;;5035143;28;20197;-89
2023/01/05 07:40:10;;;;;;;32.13;6.17;;;10.80;99.90;;;;;;5024442;28;20224;-92
2023/01/05 07:42:39;;;;;;;31.60;5.97;;;10.70;99.90;;;;;;5023210;28;20203;-89
2023/01/05 07:45:13;;;;;;;27.63;5.93;;;10.70;99.90;;;;;;5016468;28;20299;-96
2023/01/05 07:47:45;;;;;;;35.93;5.57;;;10.70;99.90;;;;;;5016873;28;20213;-90
2023/01/05 07:50:22;;;;;;;29.50;5.50;;;10.70;99.90;;;;;;5017373;28;20300;-89
2023/01/05 07:52:58;;;;;;;33.28;7.78;;;10.70;99.90;;;;;;5015483;28;20429;-88
2023/01/05 07:55:27;;;;;;;31.17;6.33;;;10.80;99.90;;;;;;5015718;28;20691;-88
2023/01/05 07:57:57;;;;;;;29.87;6.43;;;10.80;99.90;;;;;;5015946;28;20697;-90
2023/01/05 08:00:26;;;;;;;28.77;5.77;;;10.70;99.90;;;;;;5015477;28;20224;-92
2023/01/05 08:02:59;;;;;;;34.80;6.73;;;10.80;99.90;;;;;;5034962;28;20612;-90
2023/01/05 08:05:33;;;;;;;33.00;6.23;;;10.80;99.90;;;;;;5035297;28;20199;-91
2023/01/05 08:08:01;;;;;;;37.10;6.47;;;10.80;99.90;;;;;;5035413;28;20207;-88
2023/01/05 08:10:27;;;;;;;33.93;5.97;;;10.80;99.90;;;;;;5035528;28;20278;-91
2023/01/05 08:15:39;;;;;;;34.27;6.27;;;10.90;99.90;;;;;;5034609;28;20310;-93
2023/01/05 08:18:10;;;;;;;29.53;6.27;;;10.90;99.90;;;;;;5034851;28;20203;-93
2023/01/05 08:20:38;;;;;;;29.40;6.07;;;10.70;99.90;;;;;;5035719;28;20228;-87
2023/01/05 08:23:08;;;;;;;34.43;6.10;;;10.70;99.90;;;;;;5035863;28;20280;-90
2023/01/05 08:25:41;;;;;;;35.55;6.53;;;10.60;99.90;;;;;;5035441;28;20446;-90
2023/01/05 08:28:11;;;;;;;37.63;6.10;;;10.70;99.90;;;;;;5035385;28;20228;-87
2023/01/05 08:30:44;;;;;;;41.83;7.03;;;10.70;99.90;;;;;;5035042;28;20225;-85
2023/01/05 08:33:14;;;;;;;34.00;6.07;;;10.70;99.90;;;;;;5034864;28;20290;-88
2023/01/05 08:35:44;;;;;;;33.07;5.87;;;10.70;99.90;;;;;;5034886;28;20654;-88
2023/01/05 08:38:15;;;;;;;32.37;7.30;;;10.70;99.90;;;;;;5034760;28;20255;-88
2023/01/05 08:40:42;;;;;;;34.93;6.97;;;10.80;99.90;;;;;;5035116;28;20596;-89
2023/01/05 08:43:12;;;;;;;37.88;7.20;;;10.80;99.90;;;;;;5044600;28;20459;-90
2023/01/05 08:45:41;;;;;;;31.57;7.07;;;10.90;99.90;;;;;;5050807;28;20198;-87
2023/01/05 08:48:09;;;;;;;32.60;6.90;;;10.90;99.90;;;;;;5055393;28;20193;-89
2023/01/05 08:50:38;;;;;;;40.40;6.70;;;10.90;99.90;;;;;;5053108;28;20278;-91
2023/01/05 08:53:17;;;;;;;39.57;6.27;;;10.90;99.90;;;;;;5056626;28;20209;-92
2023/01/05 08:55:45;;;;;;;40.17;7.77;;;10.90;99.90;;;;;;5042758;28;20230;-95
2023/01/05 08:58:14;;;;;;;28.27;6.17;;;10.90;99.90;;;;;;5034948;28;20275;-87
2023/01/05 09:00:44;;;;;;;36.03;7.13;;;11.00;99.90;;;;;;5035504;28;20229;-94
2023/01/05 09:03:11;;;;;;;37.67;5.97;;;11.00;99.90;;;;;;5036267;28;20210;-94
2023/01/05 09:05:38;;;;;;;23.93;6.03;;;11.00;99.90;;;;;;5032024;28;20200;-93
2023/01/05 09:08:09;;;;;;;29.23;6.10;;;10.90;99.90;;;;;;5033724;28;20255;-95
2023/01/05 09:10:38;;;;;;;28.40;5.67;;;11.00;99.90;;;;;;5034912;28;20237;-90
2023/01/05 09:13:10;;;;;;;32.23;6.37;;;10.90;99.90;;;;;;5045895;28;20205;-92
2023/01/05 09:15:51;;;;;;;25.73;5.20;;;10.90;99.90;;;;;;5051012;28;20228;-89
2023/01/05 09:18:51;;;;;;;35.87;6.80;;;11.00;99.90;;;;;;5055585;28;20211;-94
2023/01/05 09:21:38;;;;;;;28.30;5.33;;;10.90;99.90;;;;;;5053928;28;20211;-89
2023/01/05 09:24:32;;;;;;;36.63;6.90;;;10.90;99.90;;;;;;5050493;28;20208;-88
2023/01/05 09:27:35;;;;;;;28.10;5.80;;;10.90;99.90;;;;;;5053253;28;20211;-92
2023/01/05 09:30:31;;;;;;;28.17;5.67;;;11.00;99.90;;;;;;5049224;28;20225;-90
2023/01/05 09:33:10;;;;;;;30.33;5.73;;;11.00;99.90;;;;;;5029563;28;20206;-91
2023/01/05 09:36:03;;;;;;;35.60;5.90;;;11.00;99.90;;;;;;5043288;28;20214;-93
2023/01/05 09:38:35;;;;;;;29.07;5.40;;;10.90;99.90;;;;;;5024088;28;20203;-95
2023/01/05 09:41:14;;;;;;;32.47;6.93;;;11.00;99.90;;;;;;5041827;28;20228;-95
2023/01/05 09:43:48;;;;;;;32.37;6.23;;;11.00;99.90;;;;;;5052543;28;20200;-93
2023/01/05 09:46:23;;;;;;;34.40;6.00;;;11.00;99.90;;;;;;5057092;28;20306;-93
2023/01/05 09:48:53;;;;;;;36.07;6.70;;;11.00;99.90;;;;;;5056221;28;20210;-94
2023/01/05 09:51:22;;;;;;;29.97;5.47;;;11.00;99.90;;;;;;5052738;28;20229;-94
2023/01/05 09:53:57;;;;;;;33.93;6.03;;;11.10;99.90;;;;;;5022250;28;20196;-94
2023/01/05 09:56:35;;;;;;;25.50;5.77;;;11.10;99.90;;;;;;5044086;28;20279;-95
2023/01/05 09:59:12;;;;;;;30.77;6.57;;;11.10;99.90;;;;;;5048778;28;20561;-93
2023/01/05 10:01:43;;;;;;;35.73;6.53;;;11.30;99.90;;;;;;5051778;28;20223;-94
2023/01/05 10:04:25;;;;;;;25.60;5.70;;;11.20;99.90;;;;;;5051287;28;20218;-92
2023/01/05 10:06:57;;;;;;;24.63;5.53;;;11.30;99.90;;;;;;5042941;28;20219;-95
2023/01/05 10:09:30;;;;;;;28.00;5.67;;;11.30;99.90;;;;;;5040788;28;20274;-95
2023/01/05 10:17:38;;;;;;;30.67;6.50;;;11.40;99.90;;;;;;5044146;28;20210;-93
2023/01/05 10:20:15;;;;;;;29.47;6.10;;;11.40;99.90;;;;;;5037382;28;20251;-93
2023/01/05 10:22:52;;;;;;;32.80;5.60;;;11.40;99.90;;;;;;5036487;28;20279;-89
2023/01/05 10:25:26;;;;;;;23.70;5.50;;;11.40;99.90;;;;;;5035443;28;20300;-95
2023/01/05 10:28:06;;;;;;;30.20;5.90;;;11.40;99.90;;;;;;5037018;28;20263;-90
2023/01/05 10:30:50;;;;;;;28.97;5.80;;;11.40;99.90;;;;;;5037031;28;20255;-92
2023/01/05 10:33:30;;;;;;;25.77;5.60;;;11.50;99.90;;;;;;5037639;28;20212;-93
2023/01/05 10:36:07;;;;;;;32.53;5.93;;;11.60;99.90;;;;;;5037133;28;20261;-95
2023/01/05 10:38:49;;;;;;;34.60;5.43;;;11.60;99.90;;;;;;5037152;28;20206;-90
2023/01/05 10:41:22;;;;;;;29.47;5.63;;;11.60;99.90;;;;;;5037369;28;20232;-94
2023/01/05 10:44:10;;;;;;;32.45;6.25;;;11.70;99.90;;;;;;5036372;28;20459;-96
2023/01/05 10:46:41;;;;;;;31.57;6.80;;;11.70;99.90;;;;;;5036902;28;20305;-95
2023/01/05 10:49:08;;;;;;;30.90;6.13;;;11.70;99.90;;;;;;5037339;28;20218;-95
2023/01/05 10:51:46;;;;;;;30.77;5.80;;;11.80;99.90;;;;;;5036131;28;20315;-94
2023/01/05 10:54:35;;;;;;;25.60;5.50;;;11.80;99.90;;;;;;5038572;28;20334;-89
2023/01/05 10:57:42;;;;;;;26.80;5.60;;;11.70;99.90;;;;;;5042536;28;20244;-86
2023/01/05 11:00:15;;;;;;;30.40;5.83;;;11.80;99.90;;;;;;5038044;28;20645;-87
2023/01/05 11:02:49;;;;;;;26.13;5.40;;;11.80;99.90;;;;;;5036745;28;20207;-88
2023/01/05 11:05:32;;;;;;;25.93;5.77;;;11.80;99.90;;;;;;5036776;28;20201;-89
2023/01/05 11:08:01;;;;;;;32.70;7.17;;;11.90;99.90;;;;;;5037062;28;20214;-94
2023/01/05 11:10:30;;;;;;;32.37;5.87;;;12.00;99.90;;;;;;5035965;28;20244;-87
2023/01/05 11:13:05;;;;;;;39.10;6.87;;;12.10;99.90;;;;;;5036380;28;20546;-88
2023/01/05 11:15:44;;;;;;;32.60;6.90;;;12.10;99.90;;;;;;5036334;28;20330;-91
2023/01/05 11:18:25;;;;;;;26.77;5.83;;;12.20;99.90;;;;;;5036661;28;20205;-88
2023/01/05 11:23:58;;;;;;;27.20;6.20;;;12.40;99.90;;;;;;5039095;28;20195;-90
2023/01/05 11:26:31;;;;;;;35.53;6.67;;;12.50;99.90;;;;;;5042434;28;20209;-89
2023/01/05 11:29:20;;;;;;;28.63;5.90;;;12.50;99.90;;;;;;5043774;28;20257;-91
2023/01/05 11:32:03;;;;;;;27.30;6.67;;;12.50;99.90;;;;;;5043394;28;20226;-91
2023/01/05 11:35:00;;;;;;;29.87;6.47;;;12.50;99.90;;;;;;5041752;28;20238;-94
2023/01/05 11:38:25;;;;;;;30.73;5.73;;;12.50;99.90;;;;;;5036906;28;20227;-96
2023/01/05 11:41:50;;;;;;;27.23;5.73;;;12.50;99.90;;;;;;5040758;28;20222;-93
2023/01/05 11:44:35;;;;;;;27.47;6.03;;;12.50;99.90;;;;;;4980639;28;20228;-90
2023/01/05 11:47:38;;;;;;;29.03;6.50;;;12.50;99.90;;;;;;4983834;28;20213;-93
2023/01/05 11:50:20;;;;;;;25.33;5.73;;;12.60;99.90;;;;;;5032868;28;20253;-90
2023/01/05 11:53:02;;;;;;;28.33;6.03;;;12.60;99.90;;;;;;5036853;28;20261;-87
2023/01/05 12:02:33;;;;;;;30.30;6.43;;;12.90;99.90;;;;;;5062532;22;20291;-91
2023/01/05 12:05:18;;;;;;;31.53;5.80;;;13.00;99.90;;;;;;5009116;28;20296;-92
2023/01/05 12:07:52;;;;;;;26.20;6.27;;;13.10;99.90;;;;;;5032186;28;20214;-93
2023/01/05 12:10:39;;;;;;;28.13;5.57;;;13.10;99.90;;;;;;5033797;28;20289;-93
2023/01/05 12:13:18;;;;;;;27.73;5.97;;;13.10;99.90;;;;;;5019421;28;20210;-92
2023/01/05 12:16:06;;;;;;;34.57;6.93;;;13.00;99.90;;;;;;5034898;28;20682;-91
2023/01/05 12:18:51;;;;;;;32.73;5.70;;;12.90;99.90;;;;;;5024835;28;20203;-92
2023/01/05 12:21:38;;;;;;;33.60;6.77;;;12.90;99.90;;;;;;5034812;28;20290;-90
2023/01/05 12:24:38;;;;;;;26.63;5.87;;;12.70;99.90;;;;;;5035181;28;20203;-91
2023/01/05 12:27:22;;;;;;;25.03;5.70;;;12.70;99.90;;;;;;4928368;29;20671;-93
2023/01/05 12:30:03;;;;;;;32.30;5.77;;;12.60;99.90;;;;;;5025360;28;20579;-92
2023/01/05 12:32:44;;;;;;;30.00;5.93;;;12.50;99.90;;;;;;5034523;28;20218;-90
2023/01/05 12:35:32;;;;;;;33.10;6.10;;;12.50;99.90;;;;;;5024065;28;20237;-91
2023/01/05 12:38:20;;;;;;;29.77;5.50;;;12.50;99.90;;;;;;5034672;28;20222;-93
2023/01/05 12:41:03;;;;;;;33.83;5.80;;;12.60;99.90;;;;;;5034560;28;20210;-93
2023/01/05 12:43:39;;;;;;;27.90;5.70;;;12.70;99.90;;;;;;5034814;28;20209;-94
2023/01/05 12:46:18;;;;;;;33.37;6.30;;;12.80;99.90;;;;;;5034497;28;20221;-94
2023/01/05 12:48:49;;;;;;;30.67;6.03;;;12.90;99.90;;;;;;5029067;28;20202;-90
2023/01/05 12:51:22;;;;;;;30.90;6.43;;;13.00;99.90;;;;;;5034735;28;20210;-91
2023/01/05 12:54:01;;;;;;;31.83;5.97;;;13.10;99.90;;;;;;5033749;28;20203;-92
2023/01/05 12:56:33;;;;;;;29.67;6.17;;;13.10;99.90;;;;;;5035262;28;20246;-93
2023/01/05 12:59:10;;;;;;;31.43;5.27;;;13.00;99.90;;;;;;5019462;28;20200;-89
2023/01/05 13:01:43;;;;;;;27.33;5.47;;;13.00;99.90;;;;;;5034973;28;20211;-89
2023/01/05 13:04:23;;;;;;;25.00;5.17;;;12.80;99.90;;;;;;5034638;28;20196;-92
2023/01/05 13:06:53;;;;;;;18.47;4.07;;;12.80;99.90;;;;;;5034396;28;20213;-91
2023/01/05 13:09:24;;;;;;;16.83;3.90;;;12.70;99.90;;;;;;5037655;28;20218;-91
2023/01/05 13:11:55;;;;;;;19.27;4.63;;;12.50;99.90;;;;;;5036902;28;20258;-93
2023/01/05 13:14:27;;;;;;;15.93;4.07;;;12.50;99.90;;;;;;5034515;28;20206;-91
2023/01/05 13:16:58;;;;;;;16.00;4.57;;;12.50;99.90;;;;;;5034797;28;20231;-92
2023/01/05 13:19:30;;;;;;;15.80;3.97;;;12.40;99.90;;;;;;5045449;28;20521;-92
2023/01/05 13:22:02;;;;;;;18.80;4.53;;;12.50;99.90;;;;;;5038405;28;20203;-89
2023/01/05 13:24:35;;;;;;;16.07;4.03;;;12.50;99.90;;;;;;5020914;28;20188;-90
2023/01/05 13:27:03;;;;;;;18.43;4.50;;;12.60;99.90;;;;;;5038344;28;20214;-91
2023/01/05 13:29:33;;;;;;;17.38;4.70;;;12.70;99.90;;;;;;5038396;28;20797;-91
2023/01/05 13:32:20;;;;;;;13.17;4.10;;;12.60;99.90;;;;;;5038112;28;20210;-90
2023/01/05 13:35:20;;;;;;;16.77;4.03;;;12.40;99.90;;;;;;5038109;28;20206;-91
2023/01/05 13:38:21;;;;;;;16.60;4.53;;;12.50;99.90;;;;;;5022917;28;20242;-91
2023/01/05 13:41:15;;;;;;;22.27;5.07;;;12.50;99.90;;;;;;5019944;28;20210;-78
2023/01/05 13:44:09;;;;;;;16.67;5.43;;;12.50;99.90;;;;;;5019210;28;20210;-80
2023/01/05 13:46:51;;;;;;;20.53;6.17;;;12.40;99.90;;;;;;5004719;28;20548;-77
2023/01/05 13:49:56;;;;;;;19.83;6.80;;;12.60;99.90;;;;;;5036203;28;20203;-77
2023/01/05 13:52:34;;;;;;;22.50;7.63;;;12.70;99.90;;;;;;5036592;28;20226;-80
2023/01/05 13:55:03;;;;;;;19.67;7.07;;;12.60;99.90;;;;;;5037077;28;20666;-90
2023/01/05 13:57:38;;;;;;;28.57;8.13;;;12.60;99.90;;;;;;5037500;28;20603;-90
2023/01/05 14:00:09;;;;;;;23.57;8.93;;;12.60;99.90;;;;;;5037537;28;20237;-94
2023/01/05 14:02:38;;;;;;;26.23;9.93;;;12.60;99.90;;;;;;5037453;28;20655;-91
2023/01/05 14:05:15;;;;;;;32.23;10.70;;;12.60;99.90;;;;;;5037023;28;20211;-92
2023/01/05 14:07:42;;;;;;;27.63;10.83;;;12.60;99.90;;;;;;5037775;28;20214;-93
2023/01/05 14:10:21;;;;;;;32.37;13.23;;;12.50;99.90;;;;;;5038442;28;20435;-87
2023/01/05 14:12:52;;;;;;;31.03;12.23;;;12.50;99.90;;;;;;5003881;28;20207;-86
2023/01/05 14:15:35;;;;;;;28.30;11.37;;;12.50;99.90;;;;;;5037075;28;20214;-87
2023/01/05 14:18:02;;;;;;;21.93;10.97;;;12.40;99.90;;;;;;5036766;28;20266;-88
2023/01/05 14:20:32;;;;;;;23.87;10.00;;;12.60;99.90;;;;;;5036903;28;20642;-87
2023/01/05 14:23:01;;;;;;;25.00;10.20;;;12.60;99.90;;;;;;5037300;28;20222;-86
2023/01/05 14:25:52;;;;;;;23.43;9.13;;;12.60;99.90;;;;;;5036736;28;20211;-86